createdAt,value
2023-02-19T00:01:28.789Z,0.82
2023-02-19T00:04:19.932Z,1.08
2023-02-19T00:06:47.753Z,1.10
2023-02-19T00:09:16.857Z,1.95
2023-02-19T00:11:44.440Z,1.88
2023-02-19T00:14:15.739Z,1.25
2023-02-19T00:16:42.376Z,0.75
2023-02-19T00:19:13.534Z,1.00
2023-02-19T00:21:40.185Z,1.88
2023-02-19T00:24:08.272Z,1.42
2023-02-19T00:26:35.220Z,1.15
2023-02-19T00:29:02.375Z,1.20
2023-02-19T00:31:36.268Z,2.00
2023-02-19T00:34:05.706Z,1.00
2023-02-19T00:36:36.123Z,1.08
2023-02-19T00:39:03.872Z,1.55
2023-02-19T00:41:30.685Z,2.40
2023-02-19T00:44:05.033Z,0.75
2023-02-19T00:46:41.102Z,1.73
2023-02-19T00:49:11.985Z,1.30
2023-02-19T00:51:39.014Z,1.77
2023-02-19T00:54:06.320Z,1.33
2023-02-19T00:56:33.336Z,0.80
2023-02-19T00:59:00.305Z,1.20
2023-02-19T01:01:27.068Z,1.23
2023-02-19T01:03:53.891Z,1.45
2023-02-19T01:06:21.215Z,1.10
2023-02-19T01:08:47.935Z,1.48
2023-02-19T01:11:15.277Z,1.00
2023-02-19T01:13:43.025Z,0.98
2023-02-19T01:16:15.545Z,1.15
2023-02-19T01:18:42.605Z,0.90
2023-02-19T01:21:15.162Z,1.15
2023-02-19T01:23:42.321Z,0.93
2023-02-19T01:26:13.854Z,1.17
2023-02-19T01:28:40.697Z,1.35
2023-02-19T01:31:11.155Z,1.02
2023-02-19T01:33:37.975Z,2.08
2023-02-19T01:36:06.143Z,1.23
2023-02-19T01:38:33.481Z,1.15
2023-02-19T01:41:03.447Z,1.20
2023-02-19T01:43:32.976Z,1.65
2023-02-19T01:45:59.850Z,1.15
2023-02-19T01:48:34.356Z,1.20
2023-02-19T01:51:14.534Z,1.33
2023-02-19T01:53:45.805Z,0.98
2023-02-19T01:56:16.313Z,1.23
2023-02-19T01:58:43.281Z,0.70
2023-02-19T02:01:10.321Z,0.80
2023-02-19T02:03:39.528Z,1.48
2023-02-19T02:06:22.985Z,1.10
2023-02-19T02:09:14.841Z,1.23
2023-02-19T02:11:52.189Z,1.23
2023-02-19T02:14:23.641Z,0.80
2023-02-19T02:17:13.419Z,0.93
2023-02-19T02:20:13.063Z,1.13
2023-02-19T02:23:16.900Z,1.00
2023-02-19T02:26:05.028Z,1.00
2023-02-19T02:28:37.616Z,0.98
2023-02-19T02:31:21.563Z,1.08
2023-02-19T02:33:55.140Z,1.08
2023-02-19T02:36:35.653Z,0.90
2023-02-19T02:39:07.300Z,1.02
2023-02-19T02:41:34.211Z,1.17
2023-02-19T02:44:00.819Z,0.80
2023-02-19T02:46:36.023Z,0.90
2023-02-19T02:49:06.665Z,0.85
2023-02-19T02:51:41.462Z,0.60
2023-02-19T02:54:37.397Z,0.88
2023-02-19T02:57:04.771Z,1.20
2023-02-19T02:59:37.143Z,1.30
2023-02-19T03:02:11.102Z,0.90
2023-02-19T03:05:04.160Z,1.00
2023-02-19T03:07:42.082Z,0.70
2023-02-19T03:10:12.829Z,0.98
2023-02-19T03:13:00.568Z,0.80
2023-02-19T03:15:51.509Z,1.20
2023-02-19T03:18:38.160Z,0.60
2023-02-19T03:21:07.300Z,0.85
2023-02-19T03:23:54.419Z,0.60
2023-02-19T03:26:21.948Z,1.02
2023-02-19T03:29:10.173Z,0.80
2023-02-19T03:31:39.833Z,0.60
2023-02-19T03:34:12.791Z,1.10
2023-02-19T03:36:44.503Z,0.98
2023-02-19T03:39:14.516Z,0.85
2023-02-19T03:41:41.066Z,1.10
2023-02-19T03:44:10.736Z,0.80
2023-02-19T03:46:55.310Z,0.68
2023-02-19T03:49:49.251Z,0.70
2023-02-19T03:52:28.322Z,0.90
2023-02-19T03:55:04.070Z,1.15
2023-02-19T03:57:53.789Z,0.73
2023-02-19T04:00:37.104Z,1.10
2023-02-19T04:03:19.467Z,0.60
2023-02-19T04:05:52.136Z,0.95
2023-02-19T04:08:21.865Z,0.90
2023-02-19T04:10:50.739Z,0.65
2023-02-19T04:13:27.122Z,0.60
2023-02-19T04:15:57.013Z,1.02
2023-02-19T04:18:28.708Z,1.25
2023-02-19T04:20:57.472Z,1.00
2023-02-19T04:23:26.550Z,0.60
2023-02-19T04:25:59.900Z,0.65
2023-02-19T04:28:28.269Z,0.52
2023-02-19T04:30:56.347Z,0.50
2023-02-19T04:33:23.018Z,0.80
2023-02-19T04:35:49.649Z,0.63
2023-02-19T04:38:16.343Z,1.27
2023-02-19T04:40:43.026Z,0.57
2023-02-19T04:43:09.659Z,1.40
2023-02-19T04:45:39.634Z,1.38
2023-02-19T04:48:06.285Z,1.05
2023-02-19T04:50:32.949Z,1.60
2023-02-19T04:52:59.588Z,1.27
2023-02-19T04:55:26.208Z,1.10
2023-02-19T04:57:52.798Z,1.38
2023-02-19T05:00:19.534Z,1.45
2023-02-19T05:02:46.216Z,1.30
2023-02-19T05:05:12.833Z,1.38
2023-02-19T05:07:39.449Z,1.17
2023-02-19T05:10:06.558Z,1.10
2023-02-19T05:12:33.174Z,1.30
2023-02-19T05:14:59.821Z,1.38
2023-02-19T05:17:26.454Z,1.25
2023-02-19T05:19:53.063Z,0.90
2023-02-19T05:22:19.676Z,1.20
2023-02-19T05:24:46.345Z,1.65
2023-02-19T05:27:13.001Z,1.30
2023-02-19T05:29:39.614Z,1.27
2023-02-19T05:32:06.268Z,1.00
2023-02-19T05:34:33.026Z,1.17
2023-02-19T05:36:59.634Z,1.17
2023-02-19T05:39:26.251Z,0.95
2023-02-19T05:41:53.385Z,1.25
2023-02-19T05:44:19.986Z,1.17
2023-02-19T05:46:46.578Z,1.70
2023-02-19T05:49:13.297Z,0.85
2023-02-19T05:51:39.991Z,0.95
2023-02-19T05:54:06.814Z,1.20
2023-02-19T05:56:36.347Z,1.10
2023-02-19T05:59:18.130Z,1.10
2023-02-19T06:01:45.712Z,1.10
2023-02-19T06:04:14.059Z,1.23
2023-02-19T06:06:41.572Z,0.95
2023-02-19T06:09:08.850Z,1.00
2023-02-19T06:11:35.933Z,1.00
2023-02-19T06:14:02.760Z,1.40
2023-02-19T06:16:29.618Z,1.42
2023-02-19T06:18:56.237Z,1.10
2023-02-19T06:21:22.916Z,1.20
2023-02-19T06:23:49.690Z,1.27
2023-02-19T06:26:20.499Z,1.42
2023-02-19T06:28:48.874Z,1.17
2023-02-19T06:31:16.367Z,1.73
2023-02-19T06:33:43.296Z,0.95
2023-02-19T06:36:18.089Z,1.30
2023-02-19T06:38:45.292Z,1.33
2023-02-19T06:41:13.399Z,1.20
2023-02-19T06:43:40.471Z,0.80
2023-02-19T06:46:07.977Z,1.00
2023-02-19T06:48:35.539Z,1.40
2023-02-19T06:51:02.918Z,1.10
2023-02-19T06:53:29.732Z,1.27
2023-02-19T06:55:58.560Z,1.27
2023-02-19T06:58:25.846Z,1.20
2023-02-19T07:00:53.220Z,1.13
2023-02-19T07:03:20.186Z,1.10
2023-02-19T07:05:46.847Z,1.08
2023-02-19T07:08:13.585Z,1.70
2023-02-19T07:10:40.186Z,1.20
2023-02-19T07:13:06.783Z,1.05
2023-02-19T07:15:33.457Z,1.00
2023-02-19T07:18:00.142Z,1.10
2023-02-19T07:20:26.854Z,1.02
2023-02-19T07:22:53.597Z,1.00
2023-02-19T07:25:20.338Z,1.00
2023-02-19T07:27:46.942Z,1.50
2023-02-19T07:30:13.701Z,2.72
2023-02-19T07:32:45.450Z,1.08
2023-02-19T07:35:12.190Z,1.30
2023-02-19T07:37:40.396Z,1.27
2023-02-19T07:40:07.546Z,1.00
2023-02-19T07:42:34.204Z,1.00
2023-02-19T07:45:00.869Z,1.08
2023-02-19T07:47:29.865Z,0.80
2023-02-19T07:49:56.481Z,1.33
2023-02-19T07:52:23.453Z,1.10
2023-02-19T07:54:50.245Z,1.45
2023-02-19T07:57:16.983Z,1.35
2023-02-19T07:59:43.754Z,0.98
2023-02-19T08:02:36.299Z,1.20
2023-02-19T08:05:04.032Z,1.60
2023-02-19T08:07:35.133Z,1.10
2023-02-19T08:10:26.179Z,1.40
2023-02-19T08:13:18.767Z,1.00
2023-02-19T08:15:52.575Z,1.50
2023-02-19T08:18:21.848Z,1.23
2023-02-19T08:20:48.490Z,1.55
2023-02-19T08:23:16.176Z,1.40
2023-02-19T08:25:43.629Z,1.35
2023-02-19T08:28:11.826Z,1.35
2023-02-19T08:30:40.898Z,1.63
2023-02-19T08:33:08.525Z,1.50
2023-02-19T08:35:36.647Z,1.50
2023-02-19T08:38:04.764Z,1.05
2023-02-19T08:40:32.460Z,1.20
2023-02-19T08:43:07.538Z,1.20
2023-02-19T08:45:34.873Z,1.40
2023-02-19T08:48:01.477Z,1.35
2023-02-19T08:50:28.425Z,1.10
2023-02-19T08:52:55.221Z,1.10
2023-02-19T08:55:21.964Z,1.27
2023-02-19T08:57:50.603Z,1.17
2023-02-19T09:00:17.558Z,1.63
2023-02-19T09:02:44.190Z,1.40
2023-02-19T09:05:12.086Z,1.60
2023-02-19T09:07:39.457Z,1.25
2023-02-19T09:10:06.769Z,1.55
2023-02-19T09:12:33.768Z,1.17
2023-02-19T09:15:00.837Z,1.60
2023-02-19T09:17:27.860Z,1.50
2023-02-19T09:19:54.486Z,1.17
2023-02-19T09:22:21.326Z,0.98
2023-02-19T09:24:47.953Z,1.63
2023-02-19T09:27:19.782Z,1.60
2023-02-19T09:29:47.011Z,1.75
2023-02-19T09:32:14.185Z,1.15
2023-02-19T09:34:40.886Z,1.10
2023-02-19T09:37:08.277Z,1.17
2023-02-19T09:39:35.664Z,1.15
2023-02-19T09:42:22.146Z,1.40
2023-02-19T09:44:51.772Z,1.30
2023-02-19T09:47:21.397Z,0.93
2023-02-19T09:49:52.253Z,1.10
2023-02-19T09:52:32.316Z,1.00
2023-02-19T09:55:13.344Z,1.30
2023-02-19T09:57:40.812Z,1.27
2023-02-19T10:00:45.918Z,0.98
2023-02-19T10:03:20.679Z,0.88
2023-02-19T10:05:48.074Z,1.52
2023-02-19T10:08:20.199Z,0.88
2023-02-19T10:10:46.874Z,0.95
2023-02-19T10:13:18.346Z,0.82
2023-02-19T10:15:57.275Z,0.90
2023-02-19T10:18:28.365Z,1.15
2023-02-19T10:20:56.721Z,1.20
2023-02-19T10:23:25.082Z,1.10
2023-02-19T10:25:57.229Z,1.02
2023-02-19T10:28:28.632Z,1.40
2023-02-19T10:30:59.627Z,1.00
2023-02-19T10:33:26.921Z,0.73
2023-02-19T10:36:04.593Z,1.10
2023-02-19T10:38:40.667Z,1.02
2023-02-19T10:41:20.942Z,1.75
2023-02-19T10:44:14.116Z,0.88
2023-02-19T10:46:47.119Z,1.42
2023-02-19T10:49:33.254Z,0.80
2023-02-19T10:52:20.152Z,0.82
2023-02-19T10:54:55.402Z,0.90
2023-02-19T10:57:32.996Z,1.15
2023-02-19T11:00:26.898Z,0.75
2023-02-19T11:03:22.054Z,0.80
2023-02-19T11:06:00.127Z,0.93
2023-02-19T11:08:26.945Z,1.05
2023-02-19T11:10:53.696Z,0.82
2023-02-19T11:13:39.805Z,0.68
2023-02-19T11:16:06.677Z,0.85
2023-02-19T11:18:36.230Z,0.70
2023-02-19T11:21:05.925Z,0.88
2023-02-19T11:23:37.394Z,0.88
2023-02-19T11:26:07.808Z,0.93
2023-02-19T11:28:39.691Z,0.90
2023-02-19T11:31:27.958Z,0.80
2023-02-19T11:34:00.298Z,0.73
2023-02-19T11:36:38.053Z,1.13
2023-02-19T11:39:16.860Z,0.98
2023-02-19T11:42:05.032Z,1.33
2023-02-19T11:44:44.023Z,0.80
2023-02-19T11:47:41.239Z,0.50
2023-02-19T11:50:46.625Z,0.80
2023-02-19T11:53:32.420Z,1.42
2023-02-19T11:56:23.934Z,0.80
2023-02-19T11:59:01.993Z,0.70
2023-02-19T12:01:31.678Z,0.70
2023-02-19T12:04:37.464Z,0.70
2023-02-19T12:07:29.509Z,0.80
2023-02-19T12:10:11.503Z,0.70
2023-02-19T12:12:43.831Z,1.50
2023-02-19T12:15:32.370Z,0.95
2023-02-19T12:18:23.697Z,0.77
2023-02-19T12:21:02.026Z,0.63
2023-02-19T12:23:49.838Z,0.68
2023-02-19T12:26:31.489Z,0.88
2023-02-19T12:29:42.964Z,1.00
2023-02-19T12:32:18.556Z,1.10
2023-02-19T12:35:29.615Z,1.00
2023-02-19T12:38:00.440Z,1.33
2023-02-19T12:41:04.283Z,1.40
2023-02-19T12:43:33.249Z,1.15
2023-02-19T12:46:21.599Z,1.33
2023-02-19T12:49:20.386Z,1.10
2023-02-19T12:51:49.685Z,1.48
2023-02-19T12:54:25.260Z,1.15
2023-02-19T12:57:12.380Z,0.90
2023-02-19T13:00:00.234Z,1.00
2023-02-19T13:02:35.188Z,1.00
2023-02-19T13:05:34.877Z,0.70
2023-02-19T13:08:27.663Z,1.00
2023-02-19T13:11:02.512Z,1.20
2023-02-19T13:13:47.359Z,1.05
2023-02-19T13:16:18.865Z,1.17
2023-02-19T13:18:54.249Z,1.42
2023-02-19T13:21:42.958Z,1.13
2023-02-19T13:24:14.920Z,1.00
2023-02-19T13:26:58.394Z,1.40
2023-02-19T13:29:53.385Z,1.08
2023-02-19T13:32:29.362Z,1.20
2023-02-19T13:35:20.758Z,1.40
2023-02-19T13:37:48.728Z,0.77
2023-02-19T13:40:18.312Z,0.80
2023-02-19T13:42:53.960Z,1.25
2023-02-19T13:45:37.016Z,0.85
2023-02-19T13:48:28.901Z,1.00
2023-02-19T13:51:21.763Z,0.90
2023-02-19T13:53:56.158Z,1.50
2023-02-19T13:56:33.960Z,1.10
2023-02-19T13:59:25.536Z,0.95
2023-02-19T14:01:55.020Z,1.67
2023-02-19T14:04:50.385Z,1.00
2023-02-19T14:07:16.975Z,0.93
2023-02-19T14:09:46.140Z,1.05
2023-02-19T14:12:15.162Z,1.05
2023-02-19T14:14:49.131Z,0.85
2023-02-19T14:17:18.537Z,1.13
2023-02-19T14:19:49.886Z,0.98
2023-02-19T14:22:51.502Z,1.00
2023-02-19T14:25:27.314Z,1.00
2023-02-19T14:27:59.853Z,0.80
2023-02-19T14:30:28.177Z,0.98
2023-02-19T14:33:09.692Z,0.90
2023-02-19T14:35:50.928Z,1.20
2023-02-19T14:38:26.120Z,1.08
2023-02-19T14:40:54.824Z,1.08
2023-02-19T14:43:25.208Z,1.02
2023-02-19T14:45:58.651Z,1.23
2023-02-19T14:48:28.093Z,1.05
2023-02-19T14:51:00.394Z,1.00
2023-02-19T14:53:29.861Z,0.98
2023-02-19T14:55:58.433Z,0.82
2023-02-19T14:58:30.905Z,0.70
2023-02-19T15:00:57.879Z,1.33
2023-02-19T15:03:24.438Z,0.75
2023-02-19T15:05:57.950Z,0.80
2023-02-19T15:08:39.870Z,0.70
2023-02-19T15:11:11.978Z,0.85
2023-02-19T15:13:45.530Z,0.80
2023-02-19T15:16:21.330Z,0.43
2023-02-19T15:18:50.125Z,0.97
2023-02-19T15:21:24.753Z,0.70
2023-02-19T15:23:55.839Z,0.75
2023-02-19T15:26:34.918Z,0.70
2023-02-19T15:29:05.176Z,0.65
2023-02-19T15:31:31.852Z,0.63
2023-02-19T15:33:58.549Z,1.15
2023-02-19T15:36:32.195Z,1.45
2023-02-19T15:39:02.190Z,1.00
2023-02-19T15:41:33.908Z,0.80
2023-02-19T15:44:36.201Z,0.50
2023-02-19T15:47:11.896Z,0.68
2023-02-19T15:50:05.262Z,0.60
2023-02-19T15:52:40.378Z,0.82
2023-02-19T15:55:44.001Z,0.60
2023-02-19T15:58:23.771Z,0.65
2023-02-19T16:01:08.374Z,0.70
2023-02-19T16:03:35.518Z,0.80
2023-02-19T16:06:10.634Z,0.90
2023-02-19T16:08:39.689Z,0.90
2023-02-19T16:11:24.678Z,1.08
2023-02-19T16:13:51.932Z,0.80
2023-02-19T16:16:32.043Z,0.88
2023-02-19T16:19:00.029Z,0.77
2023-02-19T16:21:28.601Z,0.82
2023-02-19T16:24:06.599Z,1.40
2023-02-19T16:26:44.486Z,0.90
2023-02-19T16:29:20.787Z,1.15
2023-02-19T16:31:55.728Z,1.10
2023-02-19T16:34:50.614Z,1.00
2023-02-19T16:37:41.087Z,0.95
2023-02-19T16:40:07.828Z,1.02
2023-02-19T16:43:06.612Z,1.08
2023-02-19T16:45:33.379Z,1.20
2023-02-19T16:48:00.150Z,1.20
2023-02-19T16:50:29.742Z,1.10
2023-02-19T16:53:01.785Z,1.60
2023-02-19T16:55:29.916Z,1.38
2023-02-19T16:57:56.572Z,1.00
2023-02-19T17:00:32.743Z,1.38
2023-02-19T17:03:11.520Z,1.80
2023-02-19T17:05:39.925Z,1.33
2023-02-19T17:08:31.421Z,1.45
2023-02-19T17:10:59.144Z,1.50
2023-02-19T17:13:25.774Z,1.88
2023-02-19T17:15:52.421Z,1.30
2023-02-19T17:18:19.057Z,1.85
2023-02-19T17:20:51.258Z,1.40
2023-02-19T17:23:17.922Z,1.50
2023-02-19T17:25:44.694Z,1.45
2023-02-19T17:28:11.332Z,1.38
2023-02-19T17:30:40.002Z,1.15
2023-02-19T17:33:07.488Z,1.40
2023-02-19T17:35:34.405Z,1.20
2023-02-19T17:38:01.122Z,1.60
2023-02-19T17:40:33.494Z,1.38
2023-02-19T17:43:01.471Z,1.80
2023-02-19T17:45:28.512Z,1.63
2023-02-19T17:47:55.256Z,1.83
2023-02-19T17:50:25.247Z,1.80
2023-02-19T17:52:51.989Z,1.55
2023-02-19T17:55:19.149Z,1.63
2023-02-19T17:57:47.110Z,1.58
2023-02-19T18:00:26.288Z,1.33
2023-02-19T18:02:53.173Z,1.33
2023-02-19T18:05:19.917Z,1.30
2023-02-19T18:07:47.624Z,1.50
2023-02-19T18:10:17.183Z,1.75
2023-02-19T18:12:44.461Z,1.70
2023-02-19T18:15:16.746Z,1.40
2023-02-19T18:17:43.768Z,1.33
2023-02-19T18:20:31.635Z,1.70
2023-02-19T18:22:58.395Z,1.83
2023-02-19T18:25:25.368Z,1.70
2023-02-19T18:27:52.183Z,1.38
2023-02-19T18:30:20.665Z,1.40
2023-02-19T18:32:51.349Z,1.50
2023-02-19T18:35:20.105Z,2.05
2023-02-19T18:37:51.646Z,1.48
2023-02-19T18:40:20.734Z,1.83
2023-02-19T18:42:47.854Z,1.88
2023-02-19T18:45:14.476Z,2.15
2023-02-19T18:47:41.102Z,1.80
2023-02-19T18:50:09.726Z,3.10
2023-02-19T18:52:36.341Z,2.67
2023-02-19T18:55:03.692Z,1.60
2023-02-19T18:57:30.333Z,1.80
2023-02-19T18:59:56.974Z,1.85
2023-02-19T19:02:23.816Z,1.98
2023-02-19T19:04:54.275Z,1.92
2023-02-19T19:07:21.280Z,1.90
2023-02-19T19:09:48.517Z,2.20
2023-02-19T19:12:16.385Z,2.33
2023-02-19T19:14:43.278Z,2.40
2023-02-19T19:17:10.169Z,1.83
2023-02-19T19:19:36.801Z,1.65
2023-02-19T19:22:03.448Z,1.65
2023-02-19T19:24:30.116Z,1.85
2023-02-19T19:26:56.826Z,1.80
2023-02-19T19:29:23.658Z,1.73
2023-02-19T19:31:50.815Z,1.20
2023-02-19T19:34:18.629Z,1.88
2023-02-19T19:36:47.205Z,1.88
2023-02-19T19:39:13.962Z,2.50
2023-02-19T19:41:41.017Z,2.30
2023-02-19T19:44:08.925Z,2.55
2023-02-19T19:46:36.070Z,2.20
2023-02-19T19:49:02.837Z,1.48
2023-02-19T19:51:33.935Z,1.77
2023-02-19T19:54:01.179Z,1.60
2023-02-19T19:56:27.838Z,2.55
2023-02-19T19:58:54.431Z,1.40
2023-02-19T20:01:22.470Z,1.58
2023-02-19T20:03:54.142Z,1.23
2023-02-19T20:06:31.826Z,1.77
2023-02-19T20:08:59.974Z,1.40
2023-02-19T20:11:26.698Z,1.67
2023-02-19T20:13:53.532Z,1.38
2023-02-19T20:16:29.421Z,1.30
2023-02-19T20:18:56.047Z,1.43
2023-02-19T20:21:23.224Z,1.60
2023-02-19T20:23:49.855Z,1.55
2023-02-19T20:26:25.821Z,1.67
2023-02-19T20:28:53.531Z,1.77
2023-02-19T20:31:20.792Z,2.08
2023-02-19T20:33:51.014Z,1.38
2023-02-19T20:36:20.178Z,1.63
2023-02-19T20:38:49.055Z,1.73
2023-02-19T20:41:15.716Z,1.85
2023-02-19T20:43:42.434Z,1.95
2023-02-19T20:46:09.170Z,1.70
2023-02-19T20:48:35.878Z,2.25
2023-02-19T20:51:02.592Z,2.17
2023-02-19T20:53:30.469Z,2.38
2023-02-19T20:55:57.429Z,2.08
2023-02-19T20:58:25.006Z,2.42
2023-02-19T21:00:53.576Z,2.53
2023-02-19T21:03:21.456Z,2.08
2023-02-19T21:05:48.254Z,2.35
2023-02-19T21:08:17.289Z,2.55
2023-02-19T21:10:47.514Z,2.20
2023-02-19T21:13:14.198Z,2.03
2023-02-19T21:15:41.169Z,2.13
2023-02-19T21:18:10.224Z,2.75
2023-02-19T21:20:36.852Z,2.58
2023-02-19T21:23:03.814Z,2.90
2023-02-19T21:25:33.117Z,2.42
2023-02-19T21:27:59.781Z,2.60
2023-02-19T21:30:26.479Z,2.20
2023-02-19T21:32:53.169Z,3.03
2023-02-19T21:35:19.848Z,2.75
2023-02-19T21:37:46.495Z,2.45
2023-02-19T21:40:13.845Z,2.67
2023-02-19T21:42:40.550Z,2.25
2023-02-19T21:45:07.698Z,3.30
2023-02-19T21:47:34.469Z,3.05
2023-02-19T21:50:01.346Z,3.00
2023-02-19T21:52:28.868Z,3.80
2023-02-19T21:54:55.581Z,3.20
2023-02-19T21:57:23.119Z,3.63
2023-02-19T21:59:49.747Z,2.95
2023-02-19T22:02:19.912Z,3.13
2023-02-19T22:04:46.980Z,3.42
2023-02-19T22:07:13.660Z,3.15
2023-02-19T22:09:40.305Z,2.80
2023-02-19T22:12:06.925Z,3.13
2023-02-19T22:14:33.577Z,3.28
2023-02-19T22:17:00.226Z,3.30
2023-02-19T22:19:26.846Z,4.32
2023-02-19T22:21:53.448Z,3.20
2023-02-19T22:24:21.798Z,2.83
2023-02-19T22:26:50.713Z,3.22
2023-02-19T22:29:17.748Z,3.08
2023-02-19T22:31:44.473Z,2.85
2023-02-19T22:34:11.205Z,3.92
2023-02-19T22:36:37.949Z,3.40
2023-02-19T22:39:10.309Z,3.00
2023-02-19T22:41:42.425Z,3.00
2023-02-19T22:44:10.142Z,3.17
2023-02-19T22:46:37.174Z,2.85
2023-02-19T22:49:05.852Z,3.22
2023-02-19T22:51:35.553Z,3.08
2023-02-19T22:54:02.236Z,3.00
2023-02-19T22:56:29.414Z,3.88
2023-02-19T22:58:57.753Z,2.88
2023-02-19T23:01:25.175Z,2.50
2023-02-19T23:03:57.574Z,3.40
2023-02-19T23:06:27.384Z,2.65
2023-02-19T23:08:56.723Z,2.40
2023-02-19T23:11:28.676Z,2.47
2023-02-19T23:13:56.181Z,2.83
2023-02-19T23:16:23.249Z,2.53
2023-02-19T23:18:49.889Z,2.20
2023-02-19T23:21:17.418Z,2.35
2023-02-19T23:23:45.272Z,2.83
2023-02-19T23:26:12.997Z,2.75
2023-02-19T23:28:40.706Z,2.42
2023-02-19T23:31:07.634Z,2.90
2023-02-19T23:33:34.458Z,3.15
2023-02-19T23:36:01.082Z,2.80
2023-02-19T23:38:27.726Z,3.22
2023-02-19T23:40:54.336Z,2.65
2023-02-19T23:43:21.353Z,2.47
2023-02-19T23:45:48.300Z,2.83
2023-02-19T23:48:14.955Z,2.42
2023-02-19T23:50:41.588Z,2.72
2023-02-19T23:53:08.579Z,2.33
2023-02-19T23:55:35.223Z,2.55
2023-02-19T23:58:01.977Z,3.00
